sensor_id;sensor_type;location;lat;lon;timestamp;P1;durP1;ratioP1;P2;durP2;ratioP2
13032;SDS011;6583;42.632;23.298;2023-08-20T00:00:29;7.38;;;6.30;;
13032;SDS011;6583;42.632;23.298;2023-08-20T00:02:58;7.05;;;6.30;;
13032;SDS011;6583;42.632;23.298;2023-08-20T00:05:28;7.07;;;6.38;;
13032;SDS011;6583;42.632;23.298;2023-08-20T00:07:55;7.05;;;6.40;;
13032;SDS011;6583;42.632;23.298;2023-08-20T00:10:23;7.25;;;6.50;;
13032;SDS011;6583;42.632;23.298;2023-08-20T00:12:50;6.75;;;6.15;;
13032;SDS011;6583;42.632;23.298;2023-08-20T00:15:16;7.05;;;6.00;;
13032;SDS011;6583;42.632;23.298;2023-08-20T00:17:45;6.47;;;5.88;;
13032;SDS011;6583;42.632;23.298;2023-08-20T00:20:13;6.47;;;5.85;;
13032;SDS011;6583;42.632;23.298;2023-08-20T00:22:42;6.80;;;6.30;;
13032;SDS011;6583;42.632;23.298;2023-08-20T00:25:11;7.35;;;6.05;;
13032;SDS011;6583;42.632;23.298;2023-08-20T00:27:39;6.53;;;5.93;;
13032;SDS011;6583;42.632;23.298;2023-08-20T00:30:07;6.47;;;5.97;;
13032;SDS011;6583;42.632;23.298;2023-08-20T00:32:34;6.50;;;5.85;;
13032;SDS011;6583;42.632;23.298;2023-08-20T00:35:01;6.75;;;6.20;;
13032;SDS011;6583;42.632;23.298;2023-08-20T00:37:28;6.18;;;5.50;;
13032;SDS011;6583;42.632;23.298;2023-08-20T00:39:55;6.32;;;5.82;;
13032;SDS011;6583;42.632;23.298;2023-08-20T00:42:23;6.60;;;6.00;;
13032;SDS011;6583;42.632;23.298;2023-08-20T00:44:52;7.00;;;6.40;;
13032;SDS011;6583;42.632;23.298;2023-08-20T00:47:19;6.85;;;6.25;;
13032;SDS011;6583;42.632;23.298;2023-08-20T00:49:46;6.88;;;6.30;;
13032;SDS011;6583;42.632;23.298;2023-08-20T00:52:14;6.68;;;6.00;;
13032;SDS011;6583;42.632;23.298;2023-08-20T00:54:43;9.18;;;6.50;;
13032;SDS011;6583;42.632;23.298;2023-08-20T00:57:11;7.07;;;6.40;;
13032;SDS011;6583;42.632;23.298;2023-08-20T00:59:39;6.50;;;5.85;;
13032;SDS011;6583;42.632;23.298;2023-08-20T01:02:08;6.78;;;6.18;;
13032;SDS011;6583;42.632;23.298;2023-08-20T01:04:35;7.00;;;6.30;;
13032;SDS011;6583;42.632;23.298;2023-08-20T01:07:03;7.55;;;6.35;;
13032;SDS011;6583;42.632;23.298;2023-08-20T01:09:40;7.18;;;5.88;;
13032;SDS011;6583;42.632;23.298;2023-08-20T01:12:13;6.80;;;6.20;;
13032;SDS011;6583;42.632;23.298;2023-08-20T01:14:42;6.65;;;6.05;;
13032;SDS011;6583;42.632;23.298;2023-08-20T01:17:10;6.97;;;6.35;;
13032;SDS011;6583;42.632;23.298;2023-08-20T01:19:37;6.90;;;6.30;;
13032;SDS011;6583;42.632;23.298;2023-08-20T01:22:13;7.15;;;6.47;;
13032;SDS011;6583;42.632;23.298;2023-08-20T01:24:54;6.97;;;6.30;;
13032;SDS011;6583;42.632;23.298;2023-08-20T01:27:32;6.68;;;6.13;;
13032;SDS011;6583;42.632;23.298;2023-08-20T01:30:11;6.85;;;6.25;;
13032;SDS011;6583;42.632;23.298;2023-08-20T01:32:39;7.72;;;6.15;;
13032;SDS011;6583;42.632;23.298;2023-08-20T01:35:07;6.55;;;5.95;;
13032;SDS011;6583;42.632;23.298;2023-08-20T01:37:38;6.80;;;6.20;;
13032;SDS011;6583;42.632;23.298;2023-08-20T01:40:06;6.70;;;6.10;;
13032;SDS011;6583;42.632;23.298;2023-08-20T01:42:35;7.40;;;6.15;;
13032;SDS011;6583;42.632;23.298;2023-08-20T01:45:04;6.75;;;6.15;;
13032;SDS011;6583;42.632;23.298;2023-08-20T01:47:33;8.48;;;5.90;;
13032;SDS011;6583;42.632;23.298;2023-08-20T01:50:00;7.28;;;6.55;;
13032;SDS011;6583;42.632;23.298;2023-08-20T01:52:27;7.13;;;6.53;;
13032;SDS011;6583;42.632;23.298;2023-08-20T01:54:54;7.22;;;6.63;;
13032;SDS011;6583;42.632;23.298;2023-08-20T01:57:21;8.10;;;7.22;;
13032;SDS011;6583;42.632;23.298;2023-08-20T01:59:50;8.30;;;7.50;;
13032;SDS011;6583;42.632;23.298;2023-08-20T02:02:16;8.60;;;7.90;;
13032;SDS011;6583;42.632;23.298;2023-08-20T02:04:44;8.50;;;7.72;;
13032;SDS011;6583;42.632;23.298;2023-08-20T02:07:11;8.00;;;7.28;;
13032;SDS011;6583;42.632;23.298;2023-08-20T02:09:38;8.68;;;7.68;;
13032;SDS011;6583;42.632;23.298;2023-08-20T02:12:05;8.52;;;7.68;;
13032;SDS011;6583;42.632;23.298;2023-08-20T02:14:33;7.88;;;7.18;;
13032;SDS011;6583;42.632;23.298;2023-08-20T02:17:00;8.30;;;7.57;;
13032;SDS011;6583;42.632;23.298;2023-08-20T02:19:27;8.30;;;7.32;;
13032;SDS011;6583;42.632;23.298;2023-08-20T02:21:55;7.85;;;7.15;;
13032;SDS011;6583;42.632;23.298;2023-08-20T02:24:22;7.80;;;7.00;;
13032;SDS011;6583;42.632;23.298;2023-08-20T02:26:48;7.78;;;7.03;;
13032;SDS011;6583;42.632;23.298;2023-08-20T02:29:15;8.50;;;7.70;;
13032;SDS011;6583;42.632;23.298;2023-08-20T02:31:42;7.85;;;7.15;;
13032;SDS011;6583;42.632;23.298;2023-08-20T02:34:09;8.77;;;6.82;;
13032;SDS011;6583;42.632;23.298;2023-08-20T02:36:35;7.57;;;6.88;;
13032;SDS011;6583;42.632;23.298;2023-08-20T02:39:04;7.97;;;7.30;;
13032;SDS011;6583;42.632;23.298;2023-08-20T02:41:32;7.40;;;6.80;;
13032;SDS011;6583;42.632;23.298;2023-08-20T02:43:59;7.43;;;6.72;;
13032;SDS011;6583;42.632;23.298;2023-08-20T02:46:26;7.50;;;6.82;;
13032;SDS011;6583;42.632;23.298;2023-08-20T02:48:52;7.35;;;6.75;;
13032;SDS011;6583;42.632;23.298;2023-08-20T02:51:19;7.20;;;6.60;;
13032;SDS011;6583;42.632;23.298;2023-08-20T02:53:46;7.10;;;6.50;;
13032;SDS011;6583;42.632;23.298;2023-08-20T02:56:14;7.55;;;6.93;;
13032;SDS011;6583;42.632;23.298;2023-08-20T02:58:41;7.20;;;6.60;;
13032;SDS011;6583;42.632;23.298;2023-08-20T03:01:13;7.65;;;6.95;;
13032;SDS011;6583;42.632;23.298;2023-08-20T03:03:44;7.90;;;7.28;;
13032;SDS011;6583;42.632;23.298;2023-08-20T03:06:10;7.78;;;7.15;;
13032;SDS011;6583;42.632;23.298;2023-08-20T03:08:37;7.55;;;6.93;;
13032;SDS011;6583;42.632;23.298;2023-08-20T03:11:04;8.23;;;6.95;;
13032;SDS011;6583;42.632;23.298;2023-08-20T03:13:32;7.95;;;7.15;;
13032;SDS011;6583;42.632;23.298;2023-08-20T03:15:58;8.15;;;7.45;;
13032;SDS011;6583;42.632;23.298;2023-08-20T03:18:25;7.55;;;6.78;;
13032;SDS011;6583;42.632;23.298;2023-08-20T03:20:53;6.88;;;6.20;;
13032;SDS011;6583;42.632;23.298;2023-08-20T03:23:20;7.90;;;7.18;;
13032;SDS011;6583;42.632;23.298;2023-08-20T03:25:47;7.97;;;7.28;;
13032;SDS011;6583;42.632;23.298;2023-08-20T03:28:14;7.55;;;6.85;;
13032;SDS011;6583;42.632;23.298;2023-08-20T03:30:42;7.60;;;6.88;;
13032;SDS011;6583;42.632;23.298;2023-08-20T03:33:08;7.78;;;7.00;;
13032;SDS011;6583;42.632;23.298;2023-08-20T03:35:35;7.68;;;7.07;;
13032;SDS011;6583;42.632;23.298;2023-08-20T03:38:02;7.18;;;6.57;;
13032;SDS011;6583;42.632;23.298;2023-08-20T03:40:29;7.63;;;6.82;;
13032;SDS011;6583;42.632;23.298;2023-08-20T03:42:55;8.13;;;7.00;;
13032;SDS011;6583;42.632;23.298;2023-08-20T03:45:22;8.02;;;6.85;;
13032;SDS011;6583;42.632;23.298;2023-08-20T03:47:50;8.38;;;7.13;;
13032;SDS011;6583;42.632;23.298;2023-08-20T03:50:16;10.20;;;7.13;;
13032;SDS011;6583;42.632;23.298;2023-08-20T03:52:43;7.10;;;6.40;;
13032;SDS011;6583;42.632;23.298;2023-08-20T03:55:10;8.18;;;7.47;;
13032;SDS011;6583;42.632;23.298;2023-08-20T03:57:36;7.53;;;6.82;;
13032;SDS011;6583;42.632;23.298;2023-08-20T04:00:03;8.27;;;7.13;;
13032;SDS011;6583;42.632;23.298;2023-08-20T04:02:33;7.90;;;7.10;;
13032;SDS011;6583;42.632;23.298;2023-08-20T04:05:01;7.80;;;7.13;;
13032;SDS011;6583;42.632;23.298;2023-08-20T04:07:29;8.35;;;7.55;;
13032;SDS011;6583;42.632;23.298;2023-08-20T04:09:56;7.13;;;6.53;;
13032;SDS011;6583;42.632;23.298;2023-08-20T04:12:22;9.02;;;8.23;;
13032;SDS011;6583;42.632;23.298;2023-08-20T04:14:49;7.13;;;6.63;;
13032;SDS011;6583;42.632;23.298;2023-08-20T04:17:16;8.05;;;7.32;;
13032;SDS011;6583;42.632;23.298;2023-08-20T04:19:43;7.85;;;7.15;;
13032;SDS011;6583;42.632;23.298;2023-08-20T04:22:10;7.80;;;7.10;;
13032;SDS011;6583;42.632;23.298;2023-08-20T04:24:37;7.25;;;6.65;;
13032;SDS011;6583;42.632;23.298;2023-08-20T04:27:05;8.00;;;7.20;;
13032;SDS011;6583;42.632;23.298;2023-08-20T04:29:32;7.55;;;6.78;;
13032;SDS011;6583;42.632;23.298;2023-08-20T04:31:59;6.88;;;6.25;;
13032;SDS011;6583;42.632;23.298;2023-08-20T04:34:25;8.50;;;6.70;;
13032;SDS011;6583;42.632;23.298;2023-08-20T04:36:52;7.38;;;6.65;;
13032;SDS011;6583;42.632;23.298;2023-08-20T04:39:20;7.45;;;6.85;;
13032;SDS011;6583;42.632;23.298;2023-08-20T04:41:47;7.68;;;6.88;;
13032;SDS011;6583;42.632;23.298;2023-08-20T04:44:13;7.85;;;7.07;;
13032;SDS011;6583;42.632;23.298;2023-08-20T04:46:40;7.90;;;6.88;;
13032;SDS011;6583;42.632;23.298;2023-08-20T04:49:07;7.55;;;6.75;;
13032;SDS011;6583;42.632;23.298;2023-08-20T04:51:33;7.35;;;6.68;;
13032;SDS011;6583;42.632;23.298;2023-08-20T04:54:00;7.25;;;6.65;;
13032;SDS011;6583;42.632;23.298;2023-08-20T04:56:28;7.88;;;6.88;;
13032;SDS011;6583;42.632;23.298;2023-08-20T04:58:54;7.60;;;6.90;;
13032;SDS011;6583;42.632;23.298;2023-08-20T05:01:21;8.18;;;7.25;;
13032;SDS011;6583;42.632;23.298;2023-08-20T05:03:48;8.13;;;7.35;;
13032;SDS011;6583;42.632;23.298;2023-08-20T05:06:14;7.65;;;6.95;;
13032;SDS011;6583;42.632;23.298;2023-08-20T05:08:41;8.23;;;7.40;;
13032;SDS011;6583;42.632;23.298;2023-08-20T05:11:08;7.75;;;7.05;;
13032;SDS011;6583;42.632;23.298;2023-08-20T05:13:36;7.32;;;6.72;;
13032;SDS011;6583;42.632;23.298;2023-08-20T05:16:03;7.15;;;6.45;;
13032;SDS011;6583;42.632;23.298;2023-08-20T05:18:30;7.53;;;6.70;;
13032;SDS011;6583;42.632;23.298;2023-08-20T05:20:58;6.80;;;6.10;;
13032;SDS011;6583;42.632;23.298;2023-08-20T05:23:25;7.25;;;6.50;;
13032;SDS011;6583;42.632;23.298;2023-08-20T05:25:51;7.25;;;6.55;;
13032;SDS011;6583;42.632;23.298;2023-08-20T05:28:18;9.40;;;7.15;;
13032;SDS011;6583;42.632;23.298;2023-08-20T05:30:53;7.85;;;7.15;;
13032;SDS011;6583;42.632;23.298;2023-08-20T05:33:21;8.50;;;7.70;;
13032;SDS011;6583;42.632;23.298;2023-08-20T05:35:47;9.35;;;7.72;;
13032;SDS011;6583;42.632;23.298;2023-08-20T05:38:14;9.07;;;8.02;;
13032;SDS011;6583;42.632;23.298;2023-08-20T05:40:41;9.27;;;8.27;;
13032;SDS011;6583;42.632;23.298;2023-08-20T05:43:07;8.85;;;7.95;;
13032;SDS011;6583;42.632;23.298;2023-08-20T05:45:35;9.20;;;8.40;;
13032;SDS011;6583;42.632;23.298;2023-08-20T05:48:03;10.23;;;7.97;;
13032;SDS011;6583;42.632;23.298;2023-08-20T05:50:30;8.80;;;7.10;;
13032;SDS011;6583;42.632;23.298;2023-08-20T05:52:56;8.88;;;8.00;;
13032;SDS011;6583;42.632;23.298;2023-08-20T05:55:23;10.88;;;8.68;;
13032;SDS011;6583;42.632;23.298;2023-08-20T05:57:50;9.60;;;8.60;;
13032;SDS011;6583;42.632;23.298;2023-08-20T06:00:17;9.63;;;8.68;;
13032;SDS011;6583;42.632;23.298;2023-08-20T06:02:44;8.90;;;8.00;;
13032;SDS011;6583;42.632;23.298;2023-08-20T06:05:12;10.30;;;7.03;;
13032;SDS011;6583;42.632;23.298;2023-08-20T06:07:38;10.55;;;8.10;;
13032;SDS011;6583;42.632;23.298;2023-08-20T06:10:06;8.45;;;7.78;;
13032;SDS011;6583;42.632;23.298;2023-08-20T06:12:33;7.60;;;6.90;;
13032;SDS011;6583;42.632;23.298;2023-08-20T06:15:00;7.00;;;6.40;;
13032;SDS011;6583;42.632;23.298;2023-08-20T06:17:26;8.52;;;7.32;;
13032;SDS011;6583;42.632;23.298;2023-08-20T06:19:53;7.88;;;7.07;;
13032;SDS011;6583;42.632;23.298;2023-08-20T06:22:21;8.02;;;7.18;;
13032;SDS011;6583;42.632;23.298;2023-08-20T06:24:48;7.65;;;6.95;;
13032;SDS011;6583;42.632;23.298;2023-08-20T06:27:14;7.30;;;6.53;;
13032;SDS011;6583;42.632;23.298;2023-08-20T06:29:41;7.57;;;6.57;;
13032;SDS011;6583;42.632;23.298;2023-08-20T06:32:08;7.45;;;6.75;;
13032;SDS011;6583;42.632;23.298;2023-08-20T06:34:34;7.35;;;6.75;;
13032;SDS011;6583;42.632;23.298;2023-08-20T06:37:01;7.45;;;6.70;;
13032;SDS011;6583;42.632;23.298;2023-08-20T06:39:29;6.90;;;6.13;;
13032;SDS011;6583;42.632;23.298;2023-08-20T06:41:56;7.25;;;6.55;;
13032;SDS011;6583;42.632;23.298;2023-08-20T06:44:23;6.80;;;6.18;;
13032;SDS011;6583;42.632;23.298;2023-08-20T06:46:50;7.30;;;6.57;;
13032;SDS011;6583;42.632;23.298;2023-08-20T06:49:16;7.47;;;6.75;;
13032;SDS011;6583;42.632;23.298;2023-08-20T06:51:43;6.78;;;6.20;;
13032;SDS011;6583;42.632;23.298;2023-08-20T06:54:10;7.20;;;6.53;;
13032;SDS011;6583;42.632;23.298;2023-08-20T06:56:38;8.43;;;6.20;;
13032;SDS011;6583;42.632;23.298;2023-08-20T06:59:04;7.07;;;6.47;;
13032;SDS011;6583;42.632;23.298;2023-08-20T07:01:31;6.97;;;6.35;;
13032;SDS011;6583;42.632;23.298;2023-08-20T07:03:57;7.18;;;6.57;;
13032;SDS011;6583;42.632;23.298;2023-08-20T07:06:24;7.00;;;6.30;;
13032;SDS011;6583;42.632;23.298;2023-08-20T07:08:51;7.47;;;6.78;;
13032;SDS011;6583;42.632;23.298;2023-08-20T07:11:17;7.05;;;6.40;;
13032;SDS011;6583;42.632;23.298;2023-08-20T07:13:45;7.60;;;7.00;;
13032;SDS011;6583;42.632;23.298;2023-08-20T07:16:12;8.50;;;6.30;;
13032;SDS011;6583;42.632;23.298;2023-08-20T07:18:39;9.30;;;6.78;;
13032;SDS011;6583;42.632;23.298;2023-08-20T07:21:05;7.40;;;6.50;;
13032;SDS011;6583;42.632;23.298;2023-08-20T07:23:33;8.00;;;6.45;;
13032;SDS011;6583;42.632;23.298;2023-08-20T07:26:05;6.85;;;6.20;;
13032;SDS011;6583;42.632;23.298;2023-08-20T07:28:33;6.60;;;5.88;;
13032;SDS011;6583;42.632;23.298;2023-08-20T07:31:19;7.43;;;5.65;;
13032;SDS011;6583;42.632;23.298;2023-08-20T07:33:46;7.03;;;6.22;;
13032;SDS011;6583;42.632;23.298;2023-08-20T07:36:13;6.72;;;6.13;;
13032;SDS011;6583;42.632;23.298;2023-08-20T07:38:39;6.57;;;5.90;;
13032;SDS011;6583;42.632;23.298;2023-08-20T07:41:07;6.88;;;5.88;;
13032;SDS011;6583;42.632;23.298;2023-08-20T07:43:34;7.25;;;6.13;;
13032;SDS011;6583;42.632;23.298;2023-08-20T07:46:01;6.50;;;5.90;;
13032;SDS011;6583;42.632;23.298;2023-08-20T07:48:29;7.05;;;6.35;;
13032;SDS011;6583;42.632;23.298;2023-08-20T07:50:55;7.05;;;6.35;;
13032;SDS011;6583;42.632;23.298;2023-08-20T07:53:22;7.00;;;6.40;;
13032;SDS011;6583;42.632;23.298;2023-08-20T07:55:49;6.82;;;6.13;;
13032;SDS011;6583;42.632;23.298;2023-08-20T07:58:15;6.70;;;6.00;;
13032;SDS011;6583;42.632;23.298;2023-08-20T08:00:42;6.97;;;6.40;;
13032;SDS011;6583;42.632;23.298;2023-08-20T08:03:09;6.88;;;6.20;;
13032;SDS011;6583;42.632;23.298;2023-08-20T08:05:37;7.10;;;6.43;;
13032;SDS011;6583;42.632;23.298;2023-08-20T08:08:04;8.60;;;6.47;;
13032;SDS011;6583;42.632;23.298;2023-08-20T08:10:31;6.55;;;6.05;;
13032;SDS011;6583;42.632;23.298;2023-08-20T08:12:57;6.30;;;5.80;;
13032;SDS011;6583;42.632;23.298;2023-08-20T08:15:24;6.50;;;5.85;;
13032;SDS011;6583;42.632;23.298;2023-08-20T08:17:50;6.13;;;5.63;;
13032;SDS011;6583;42.632;23.298;2023-08-20T08:20:17;7.43;;;5.90;;
13032;SDS011;6583;42.632;23.298;2023-08-20T08:22:45;6.75;;;5.68;;
13032;SDS011;6583;42.632;23.298;2023-08-20T08:25:12;7.60;;;5.75;;
13032;SDS011;6583;42.632;23.298;2023-08-20T08:27:38;6.75;;;5.80;;
13032;SDS011;6583;42.632;23.298;2023-08-20T08:30:06;6.30;;;5.80;;
13032;SDS011;6583;42.632;23.298;2023-08-20T08:32:33;6.65;;;5.45;;
13032;SDS011;6583;42.632;23.298;2023-08-20T08:35:00;5.70;;;5.30;;
13032;SDS011;6583;42.632;23.298;2023-08-20T08:37:26;5.88;;;5.30;;
13032;SDS011;6583;42.632;23.298;2023-08-20T08:39:54;6.20;;;5.60;;
13032;SDS011;6583;42.632;23.298;2023-08-20T08:42:22;6.53;;;6.03;;
13032;SDS011;6583;42.632;23.298;2023-08-20T08:44:49;6.03;;;5.43;;
13032;SDS011;6583;42.632;23.298;2023-08-20T08:47:16;5.78;;;5.28;;
13032;SDS011;6583;42.632;23.298;2023-08-20T08:49:44;6.15;;;5.63;;
13032;SDS011;6583;42.632;23.298;2023-08-20T08:52:11;5.93;;;5.30;;
13032;SDS011;6583;42.632;23.298;2023-08-20T08:54:38;5.85;;;5.35;;
13032;SDS011;6583;42.632;23.298;2023-08-20T08:57:06;5.65;;;5.05;;
13032;SDS011;6583;42.632;23.298;2023-08-20T08:59:33;5.80;;;5.22;;
13032;SDS011;6583;42.632;23.298;2023-08-20T09:02:00;5.78;;;5.03;;
13032;SDS011;6583;42.632;23.298;2023-08-20T09:04:27;5.85;;;5.35;;
13032;SDS011;6583;42.632;23.298;2023-08-20T09:06:55;6.50;;;5.93;;
13032;SDS011;6583;42.632;23.298;2023-08-20T09:09:22;6.40;;;5.90;;
13032;SDS011;6583;42.632;23.298;2023-08-20T09:11:49;6.22;;;5.50;;
13032;SDS011;6583;42.632;23.298;2023-08-20T09:14:23;6.47;;;5.80;;
13032;SDS011;6583;42.632;23.298;2023-08-20T09:16:54;6.55;;;6.00;;
13032;SDS011;6583;42.632;23.298;2023-08-20T09:19:22;5.95;;;5.30;;
13032;SDS011;6583;42.632;23.298;2023-08-20T09:21:50;6.15;;;5.13;;
13032;SDS011;6583;42.632;23.298;2023-08-20T09:24:25;5.22;;;4.82;;
13032;SDS011;6583;42.632;23.298;2023-08-20T09:26:56;6.45;;;5.85;;
13032;SDS011;6583;42.632;23.298;2023-08-20T09:29:25;5.97;;;5.47;;
13032;SDS011;6583;42.632;23.298;2023-08-20T09:31:51;7.07;;;5.70;;
13032;SDS011;6583;42.632;23.298;2023-08-20T09:34:31;6.25;;;5.65;;
13032;SDS011;6583;42.632;23.298;2023-08-20T09:37:02;5.70;;;5.20;;
13032;SDS011;6583;42.632;23.298;2023-08-20T09:39:29;5.85;;;5.35;;
13032;SDS011;6583;42.632;23.298;2023-08-20T09:41:56;5.78;;;5.20;;
13032;SDS011;6583;42.632;23.298;2023-08-20T09:44:27;5.38;;;4.88;;
13032;SDS011;6583;42.632;23.298;2023-08-20T09:46:58;5.03;;;4.60;;
13032;SDS011;6583;42.632;23.298;2023-08-20T09:49:26;5.32;;;4.82;;
13032;SDS011;6583;42.632;23.298;2023-08-20T09:51:55;5.10;;;4.70;;
13032;SDS011;6583;42.632;23.298;2023-08-20T09:54:25;4.80;;;4.30;;
13032;SDS011;6583;42.632;23.298;2023-08-20T09:57:01;5.38;;;4.88;;
13032;SDS011;6583;42.632;23.298;2023-08-20T09:59:32;5.65;;;4.13;;
13032;SDS011;6583;42.632;23.298;2023-08-20T10:02:01;4.78;;;4.30;;
13032;SDS011;6583;42.632;23.298;2023-08-20T10:04:28;4.75;;;4.38;;
13032;SDS011;6583;42.632;23.298;2023-08-20T10:06:56;4.70;;;4.18;;
13032;SDS011;6583;42.632;23.298;2023-08-20T10:09:24;4.68;;;4.20;;
13032;SDS011;6583;42.632;23.298;2023-08-20T10:11:52;4.82;;;4.38;;
13032;SDS011;6583;42.632;23.298;2023-08-20T10:14:19;4.65;;;4.05;;
13032;SDS011;6583;42.632;23.298;2023-08-20T10:16:47;4.22;;;3.92;;
13032;SDS011;6583;42.632;23.298;2023-08-20T10:19:14;4.50;;;3.90;;
13032;SDS011;6583;42.632;23.298;2023-08-20T10:21:43;4.60;;;4.20;;
13032;SDS011;6583;42.632;23.298;2023-08-20T10:24:10;4.72;;;4.22;;
13032;SDS011;6583;42.632;23.298;2023-08-20T10:26:42;4.30;;;3.83;;
13032;SDS011;6583;42.632;23.298;2023-08-20T10:32:06;4.25;;;3.95;;
13032;SDS011;6583;42.632;23.298;2023-08-20T10:34:35;4.18;;;3.97;;
13032;SDS011;6583;42.632;23.298;2023-08-20T10:37:03;4.13;;;3.72;;
13032;SDS011;6583;42.632;23.298;2023-08-20T10:39:35;5.28;;;4.35;;
13032;SDS011;6583;42.632;23.298;2023-08-20T10:42:08;4.40;;;4.00;;
13032;SDS011;6583;42.632;23.298;2023-08-20T10:47:26;4.32;;;3.92;;
13032;SDS011;6583;42.632;23.298;2023-08-20T10:50:02;4.63;;;4.18;;
13032;SDS011;6583;42.632;23.298;2023-08-20T10:52:29;5.25;;;4.75;;
13032;SDS011;6583;42.632;23.298;2023-08-20T10:54:56;4.93;;;4.45;;
13032;SDS011;6583;42.632;23.298;2023-08-20T10:57:22;4.63;;;4.32;;
13032;SDS011;6583;42.632;23.298;2023-08-20T10:59:59;5.32;;;4.60;;
13032;SDS011;6583;42.632;23.298;2023-08-20T11:02:32;5.00;;;4.60;;
13032;SDS011;6583;42.632;23.298;2023-08-20T11:04:59;4.78;;;4.32;;
13032;SDS011;6583;42.632;23.298;2023-08-20T11:07:26;5.78;;;5.25;;
13032;SDS011;6583;42.632;23.298;2023-08-20T11:09:53;5.38;;;4.88;;
13032;SDS011;6583;42.632;23.298;2023-08-20T11:12:21;4.97;;;4.57;;
13032;SDS011;6583;42.632;23.298;2023-08-20T11:14:47;5.18;;;4.78;;
13032;SDS011;6583;42.632;23.298;2023-08-20T11:17:14;4.72;;;4.32;;
13032;SDS011;6583;42.632;23.298;2023-08-20T11:19:42;5.07;;;4.68;;
13032;SDS011;6583;42.632;23.298;2023-08-20T11:22:09;4.75;;;4.40;;
13032;SDS011;6583;42.632;23.298;2023-08-20T11:24:38;5.38;;;4.80;;
13032;SDS011;6583;42.632;23.298;2023-08-20T11:27:05;4.90;;;4.60;;
13032;SDS011;6583;42.632;23.298;2023-08-20T11:29:32;5.00;;;4.60;;
13032;SDS011;6583;42.632;23.298;2023-08-20T11:31:58;5.07;;;4.45;;
13032;SDS011;6583;42.632;23.298;2023-08-20T11:34:28;5.03;;;4.25;;
13032;SDS011;6583;42.632;23.298;2023-08-20T11:36:56;4.88;;;4.47;;
13032;SDS011;6583;42.632;23.298;2023-08-20T11:39:23;5.07;;;4.47;;
13032;SDS011;6583;42.632;23.298;2023-08-20T11:41:50;4.90;;;4.50;;
13032;SDS011;6583;42.632;23.298;2023-08-20T11:44:21;4.68;;;4.32;;
13032;SDS011;6583;42.632;23.298;2023-08-20T11:46:48;5.97;;;4.50;;
13032;SDS011;6583;42.632;23.298;2023-08-20T11:49:15;5.63;;;4.60;;
13032;SDS011;6583;42.632;23.298;2023-08-20T11:51:42;5.03;;;4.55;;
13032;SDS011;6583;42.632;23.298;2023-08-20T11:54:13;5.43;;;4.80;;
13032;SDS011;6583;42.632;23.298;2023-08-20T11:56:42;6.00;;;5.35;;
13032;SDS011;6583;42.632;23.298;2023-08-20T11:59:10;5.22;;;4.72;;
13032;SDS011;6583;42.632;23.298;2023-08-20T12:01:37;6.88;;;4.53;;
13032;SDS011;6583;42.632;23.298;2023-08-20T12:04:04;5.00;;;4.50;;
13032;SDS011;6583;42.632;23.298;2023-08-20T12:06:32;5.10;;;4.70;;
13032;SDS011;6583;42.632;23.298;2023-08-20T12:09:00;5.03;;;4.53;;
13032;SDS011;6583;42.632;23.298;2023-08-20T12:11:30;5.40;;;4.90;;
13032;SDS011;6583;42.632;23.298;2023-08-20T12:13:58;5.90;;;4.95;;
13032;SDS011;6583;42.632;23.298;2023-08-20T12:16:25;5.18;;;4.78;;
13032;SDS011;6583;42.632;23.298;2023-08-20T12:18:51;4.85;;;4.55;;
13032;SDS011;6583;42.632;23.298;2023-08-20T12:21:19;5.18;;;4.82;;
13032;SDS011;6583;42.632;23.298;2023-08-20T12:23:45;5.40;;;4.88;;
13032;SDS011;6583;42.632;23.298;2023-08-20T12:26:12;5.50;;;5.00;;
13032;SDS011;6583;42.632;23.298;2023-08-20T12:28:40;5.78;;;4.72;;
13032;SDS011;6583;42.632;23.298;2023-08-20T12:31:07;5.40;;;5.00;;
13032;SDS011;6583;42.632;23.298;2023-08-20T12:33:34;5.30;;;4.65;;
13032;SDS011;6583;42.632;23.298;2023-08-20T12:36:00;6.55;;;5.05;;
13032;SDS011;6583;42.632;23.298;2023-08-20T12:38:28;5.47;;;5.07;;
13032;SDS011;6583;42.632;23.298;2023-08-20T12:40:58;4.85;;;4.45;;
13032;SDS011;6583;42.632;23.298;2023-08-20T12:43:25;6.30;;;5.35;;
13032;SDS011;6583;42.632;23.298;2023-08-20T12:45:53;5.18;;;4.78;;
13032;SDS011;6583;42.632;23.298;2023-08-20T12:48:20;5.25;;;4.85;;
13032;SDS011;6583;42.632;23.298;2023-08-20T12:50:46;13.05;;;9.75;;
13032;SDS011;6583;42.632;23.298;2023-08-20T12:53:13;7.53;;;6.80;;
13032;SDS011;6583;42.632;23.298;2023-08-20T12:55:40;6.43;;;5.53;;
13032;SDS011;6583;42.632;23.298;2023-08-20T12:58:06;5.57;;;5.07;;
13032;SDS011;6583;42.632;23.298;2023-08-20T13:00:33;5.45;;;4.95;;
13032;SDS011;6583;42.632;23.298;2023-08-20T13:03:01;5.18;;;4.57;;
13032;SDS011;6583;42.632;23.298;2023-08-20T13:05:28;5.40;;;5.00;;
13032;SDS011;6583;42.632;23.298;2023-08-20T13:07:55;5.18;;;4.68;;
13032;SDS011;6583;42.632;23.298;2023-08-20T13:10:23;6.00;;;5.40;;
13032;SDS011;6583;42.632;23.298;2023-08-20T13:12:50;5.82;;;5.10;;
13032;SDS011;6583;42.632;23.298;2023-08-20T13:15:19;5.63;;;5.05;;
13032;SDS011;6583;42.632;23.298;2023-08-20T13:17:48;5.15;;;4.70;;
13032;SDS011;6583;42.632;23.298;2023-08-20T13:20:17;5.32;;;4.82;;
13032;SDS011;6583;42.632;23.298;2023-08-20T13:22:46;5.30;;;4.80;;
13032;SDS011;6583;42.632;23.298;2023-08-20T13:25:13;5.22;;;4.72;;
13032;SDS011;6583;42.632;23.298;2023-08-20T13:27:40;6.28;;;4.75;;
13032;SDS011;6583;42.632;23.298;2023-08-20T13:30:07;6.35;;;4.63;;
13032;SDS011;6583;42.632;23.298;2023-08-20T13:32:34;4.85;;;4.35;;
13032;SDS011;6583;42.632;23.298;2023-08-20T13:35:01;4.97;;;4.45;;
13032;SDS011;6583;42.632;23.298;2023-08-20T13:37:31;4.63;;;4.32;;
13032;SDS011;6583;42.632;23.298;2023-08-20T13:39:58;5.40;;;4.90;;
13032;SDS011;6583;42.632;23.298;2023-08-20T13:42:25;4.63;;;4.22;;
13032;SDS011;6583;42.632;23.298;2023-08-20T13:44:52;5.00;;;4.60;;
13032;SDS011;6583;42.632;23.298;2023-08-20T13:47:19;5.88;;;4.60;;
13032;SDS011;6583;42.632;23.298;2023-08-20T13:49:45;5.28;;;4.78;;
13032;SDS011;6583;42.632;23.298;2023-08-20T13:52:12;5.40;;;5.00;;
13032;SDS011;6583;42.632;23.298;2023-08-20T13:54:40;5.85;;;5.32;;
13032;SDS011;6583;42.632;23.298;2023-08-20T13:57:06;5.40;;;4.95;;
13032;SDS011;6583;42.632;23.298;2023-08-20T13:59:33;8.48;;;4.60;;
13032;SDS011;6583;42.632;23.298;2023-08-20T14:02:00;5.53;;;5.03;;
13032;SDS011;6583;42.632;23.298;2023-08-20T14:04:27;6.85;;;6.20;;
13032;SDS011;6583;42.632;23.298;2023-08-20T14:06:54;6.03;;;5.35;;
13032;SDS011;6583;42.632;23.298;2023-08-20T14:09:21;6.05;;;5.55;;
13032;SDS011;6583;42.632;23.298;2023-08-20T14:11:49;5.43;;;4.70;;
13032;SDS011;6583;42.632;23.298;2023-08-20T14:14:15;5.35;;;4.85;;
13032;SDS011;6583;42.632;23.298;2023-08-20T14:16:42;4.95;;;4.45;;
13032;SDS011;6583;42.632;23.298;2023-08-20T14:19:08;5.68;;;5.07;;
13032;SDS011;6583;42.632;23.298;2023-08-20T14:21:35;5.47;;;4.97;;
13032;SDS011;6583;42.632;23.298;2023-08-20T14:24:02;6.30;;;5.80;;
13032;SDS011;6583;42.632;23.298;2023-08-20T14:26:29;6.45;;;5.85;;
13032;SDS011;6583;42.632;23.298;2023-08-20T14:28:57;5.00;;;4.53;;
13032;SDS011;6583;42.632;23.298;2023-08-20T14:31:24;6.50;;;5.45;;
13032;SDS011;6583;42.632;23.298;2023-08-20T14:33:51;5.53;;;5.03;;
13032;SDS011;6583;42.632;23.298;2023-08-20T14:36:17;6.60;;;6.00;;
13032;SDS011;6583;42.632;23.298;2023-08-20T14:38:44;6.85;;;4.60;;
13032;SDS011;6583;42.632;23.298;2023-08-20T14:41:11;5.68;;;5.15;;
13032;SDS011;6583;42.632;23.298;2023-08-20T14:43:37;7.10;;;4.82;;
13032;SDS011;6583;42.632;23.298;2023-08-20T14:46:05;7.30;;;6.55;;
13032;SDS011;6583;42.632;23.298;2023-08-20T14:48:32;8.40;;;6.40;;
13032;SDS011;6583;42.632;23.298;2023-08-20T14:51:00;4.88;;;4.53;;
13032;SDS011;6583;42.632;23.298;2023-08-20T14:53:28;4.85;;;4.55;;
13032;SDS011;6583;42.632;23.298;2023-08-20T14:55:54;5.15;;;4.75;;